Portada
METAR-TAF:

METAR-TAF

Aeroports :

Sussex Airport

Sussex, Nova Jersey, Estats Units d'Amèrica

latitud: 41-12-01N, longitud: 074-37-23W, altitud: 128 m

Observació

L'informe es va fer fa 1 hora i 1 minuts, a les 21:53 UTC
Vent 16 kt del Oest amb ràfegues de 24 kt
Temperatura 6°C
Humitat 36%
Pressió 1006 hPa
Visibilitat: 16.1 km
Cel ennuvolat a una alçada de 7000 ft
Cel ennuvolat a una alçada de 8000 ft

METAR: KFWN 012153Z AUTO 28016G24KT 10SM BKN070 BKN080 06/M08 A2972 RMK AO2 SLP067 T00611083

Hora: 17:54 (22:54 UTC)


TAF: manca

Observacions i pronòstics meteorològics de més de 4000 aeroports (METAR i TAF).

Les estacions disponibles són els punts grocs i vermells al mapa.

Posi el ratolí al punt desitjat per veure el nom de l'estació.

Feu clic per veure les observacions i els pronòstics meteorològics.

Per canviar el mapa: feu clic els botons verds amb una creu de color negre per apropar; al botó verd amb un guió per allunyar la imatge; o en les fletxes verdes per a mapes adjacents.


METAR-TAF: